createdAt,value
2022-08-14T00:01:55.098Z,3.20
2022-08-14T00:04:34.853Z,2.45
2022-08-14T00:07:08.942Z,2.67
2022-08-14T00:09:55.227Z,2.63
2022-08-14T00:12:23.686Z,3.00
2022-08-14T00:14:53.223Z,2.72
2022-08-14T00:17:23.111Z,2.70
2022-08-14T00:19:51.677Z,3.08
2022-08-14T00:22:44.254Z,2.63
2022-08-14T00:25:10.145Z,2.72
2022-08-14T00:27:38.256Z,2.80
2022-08-14T00:30:10.698Z,2.90
2022-08-14T00:32:52.811Z,2.97
2022-08-14T00:35:35.771Z,2.90
2022-08-14T00:38:10.027Z,3.08
2022-08-14T00:40:37.182Z,3.05
2022-08-14T00:43:04.435Z,2.65
2022-08-14T00:45:31.586Z,2.83
2022-08-14T00:47:59.941Z,2.70
2022-08-14T00:50:28.690Z,2.70
2022-08-14T00:52:56.263Z,2.72
2022-08-14T00:55:23.521Z,2.80
2022-08-14T00:58:10.788Z,2.97
2022-08-14T01:00:47.455Z,2.67
2022-08-14T01:03:19.555Z,3.08
2022-08-14T01:05:51.836Z,3.10
2022-08-14T01:08:57.590Z,3.28
2022-08-14T01:11:18.899Z,3.42
2022-08-14T01:13:50.723Z,3.47
2022-08-14T01:16:27.386Z,3.17
2022-08-14T01:19:16.118Z,3.22
2022-08-14T01:21:46.859Z,2.80
2022-08-14T01:24:30.267Z,2.35
2022-08-14T01:27:01.198Z,3.03
2022-08-14T01:29:58.113Z,3.15
2022-08-14T01:32:23.595Z,2.90
2022-08-14T01:35:17.851Z,3.20
2022-08-14T01:37:46.832Z,3.50
2022-08-14T01:40:36.818Z,3.30
2022-08-14T01:43:14.220Z,3.50
2022-08-14T01:45:41.876Z,3.72
2022-08-14T01:48:13.714Z,4.75
2022-08-14T01:50:42.639Z,4.35
2022-08-14T01:53:11.000Z,4.38
2022-08-14T01:55:40.319Z,4.30
2022-08-14T01:58:19.614Z,4.93
2022-08-14T02:03:31.332Z,4.45
2022-08-14T02:06:03.854Z,4.47
2022-08-14T02:08:53.159Z,4.82
2022-08-14T02:11:23.828Z,4.95
2022-08-14T02:14:07.529Z,4.93
2022-08-14T02:16:42.659Z,5.07
2022-08-14T02:19:15.150Z,4.60
2022-08-14T02:21:48.962Z,3.80
2022-08-14T02:24:39.014Z,3.60
2022-08-14T02:28:22.972Z,5.00
2022-08-14T02:29:59.672Z,5.15
2022-08-14T02:32:30.557Z,4.57
2022-08-14T02:35:13.872Z,5.20
2022-08-14T02:37:48.478Z,4.75
2022-08-14T02:40:18.350Z,5.57
2022-08-14T02:42:54.677Z,4.53
2022-08-14T02:45:38.414Z,4.97
2022-08-14T02:49:04.110Z,5.50
2022-08-14T02:51:00.827Z,5.13
2022-08-14T02:53:31.507Z,4.95
2022-08-14T02:56:02.608Z,5.47
2022-08-14T02:58:33.678Z,5.18
2022-08-14T03:01:04.626Z,5.13
2022-08-14T03:03:38.596Z,5.22
2022-08-14T03:06:06.957Z,5.53
2022-08-14T03:08:37.912Z,5.63
2022-08-14T03:11:09.296Z,5.28
2022-08-14T03:13:37.814Z,5.85
2022-08-14T03:16:09.269Z,5.80
2022-08-14T03:18:48.481Z,5.78
2022-08-14T03:21:22.781Z,6.80
2022-08-14T03:23:51.924Z,6.43
2022-08-14T03:26:30.217Z,7.25
2022-08-14T03:29:01.218Z,6.60
2022-08-14T03:31:29.410Z,5.45
2022-08-14T03:34:00.146Z,6.90
2022-08-14T03:39:21.970Z,7.95
2022-08-14T03:41:52.669Z,8.27
2022-08-14T03:45:19.297Z,8.33
2022-08-14T03:47:06.683Z,8.57
2022-08-14T03:49:34.914Z,8.27
2022-08-14T03:52:17.982Z,8.63
2022-08-14T03:54:54.501Z,9.18
2022-08-14T03:57:22.750Z,8.80
2022-08-14T03:59:50.719Z,8.48
2022-08-14T04:02:46.853Z,8.10
2022-08-14T04:05:11.774Z,7.78
2022-08-14T04:07:49.541Z,8.68
2022-08-14T04:10:31.989Z,8.70
2022-08-14T04:13:05.911Z,8.80
2022-08-14T04:15:56.208Z,9.20
2022-08-14T04:18:20.374Z,8.98
2022-08-14T04:20:54.446Z,9.02
2022-08-14T04:23:23.553Z,9.10
2022-08-14T04:25:54.205Z,9.45
2022-08-14T04:29:01.465Z,8.80
2022-08-14T04:31:08.175Z,8.55
2022-08-14T04:33:36.322Z,8.05
2022-08-14T04:36:03.694Z,8.88
2022-08-14T04:38:49.335Z,9.07
2022-08-14T04:41:53.964Z,9.40
2022-08-14T04:44:36.454Z,8.98
2022-08-14T04:47:23.819Z,8.32
2022-08-14T04:49:57.247Z,7.97
2022-08-14T04:52:25.140Z,7.95
2022-08-14T04:54:52.284Z,8.32
2022-08-14T04:57:21.799Z,8.48
2022-08-14T04:59:50.874Z,8.82
2022-08-14T05:02:18.146Z,9.13
2022-08-14T05:04:45.481Z,8.23
2022-08-14T05:07:46.953Z,8.32
2022-08-14T05:10:16.455Z,8.15
2022-08-14T05:13:14.381Z,8.68
2022-08-14T05:15:37.030Z,8.63
2022-08-14T05:18:17.521Z,7.53
2022-08-14T05:21:56.162Z,8.15
2022-08-14T05:23:51.882Z,8.55
2022-08-14T05:26:21.621Z,9.00
2022-08-14T05:28:48.500Z,8.25
2022-08-14T05:31:20.406Z,8.25
2022-08-14T05:33:56.539Z,8.00
2022-08-14T05:36:25.598Z,8.65
2022-08-14T05:38:54.035Z,7.38
2022-08-14T05:41:22.290Z,8.20
2022-08-14T05:43:50.043Z,8.07
2022-08-14T05:46:22.609Z,7.78
2022-08-14T05:48:50.341Z,7.97
2022-08-14T05:51:17.239Z,7.65
2022-08-14T05:53:44.327Z,7.47
2022-08-14T05:56:30.992Z,7.93
2022-08-14T05:59:00.622Z,7.93
2022-08-14T06:01:31.504Z,7.70
2022-08-14T06:03:58.597Z,8.50
2022-08-14T06:06:25.234Z,8.15
2022-08-14T06:08:52.797Z,8.10
2022-08-14T06:11:27.911Z,8.25
2022-08-14T06:13:58.520Z,8.20
2022-08-14T06:16:25.425Z,8.10
2022-08-14T06:18:52.879Z,8.38
2022-08-14T06:21:21.994Z,8.57
2022-08-14T06:23:49.531Z,8.55
2022-08-14T06:26:16.467Z,8.00
2022-08-14T06:28:47.846Z,7.97
2022-08-14T06:31:20.644Z,8.52
2022-08-14T06:35:11.583Z,8.30
2022-08-14T06:36:39.332Z,9.07
2022-08-14T06:39:08.023Z,8.38
2022-08-14T06:44:30.280Z,8.40
2022-08-14T06:47:00.302Z,8.73
2022-08-14T06:49:27.283Z,9.43
2022-08-14T06:51:57.072Z,8.15
2022-08-14T06:54:23.728Z,7.75
2022-08-14T06:56:58.877Z,8.07
2022-08-14T06:59:25.753Z,8.18
2022-08-14T07:02:13.232Z,7.93
2022-08-14T07:04:59.229Z,7.85
2022-08-14T07:07:28.517Z,7.50
2022-08-14T07:09:55.632Z,7.35
2022-08-14T07:12:54.373Z,7.72
2022-08-14T07:15:09.647Z,7.82
2022-08-14T07:17:47.188Z,7.47
2022-08-14T07:20:30.939Z,7.55
2022-08-14T07:23:08.655Z,7.30
2022-08-14T07:25:37.937Z,6.72
2022-08-14T07:28:23.458Z,6.28
2022-08-14T07:31:04.426Z,6.55
2022-08-14T07:33:37.602Z,5.90
2022-08-14T07:36:27.006Z,6.18
2022-08-14T07:39:00.917Z,6.25
2022-08-14T07:41:34.122Z,5.93
2022-08-14T07:44:32.739Z,6.18
2022-08-14T07:46:50.191Z,5.75
2022-08-14T07:49:18.746Z,6.13
2022-08-14T07:51:49.272Z,6.30
2022-08-14T07:54:23.384Z,6.13
2022-08-14T07:57:11.748Z,5.80
2022-08-14T07:59:43.466Z,5.25
2022-08-14T08:02:17.302Z,5.80
2022-08-14T08:04:49.359Z,5.88
2022-08-14T08:07:16.753Z,6.00
2022-08-14T08:09:47.936Z,5.80
2022-08-14T08:12:24.974Z,6.03
2022-08-14T08:15:03.183Z,5.55
2022-08-14T08:17:39.063Z,5.57
2022-08-14T08:20:16.113Z,5.68
2022-08-14T08:22:49.934Z,5.65
2022-08-14T08:25:24.664Z,5.50
2022-08-14T08:28:19.805Z,4.95
2022-08-14T08:30:54.365Z,4.97
2022-08-14T08:33:25.766Z,4.97
2022-08-14T08:36:05.996Z,4.63
2022-08-14T08:39:18.489Z,5.00
2022-08-14T08:41:22.811Z,5.00
2022-08-14T08:43:51.126Z,5.28
2022-08-14T08:46:21.629Z,4.75
2022-08-14T08:51:34.683Z,4.72
2022-08-14T08:54:15.293Z,4.53
2022-08-14T08:56:47.672Z,4.05
2022-08-14T08:59:17.019Z,3.38
2022-08-14T09:02:07.096Z,3.65
2022-08-14T09:04:45.244Z,4.00
2022-08-14T09:07:25.698Z,3.85
2022-08-14T09:09:58.654Z,3.88
2022-08-14T09:12:26.829Z,3.80
2022-08-14T09:14:53.916Z,4.32
2022-08-14T09:17:20.769Z,3.80
2022-08-14T09:19:53.662Z,3.47
2022-08-14T09:22:36.320Z,3.28
2022-08-14T09:25:08.573Z,3.60
2022-08-14T09:27:37.650Z,3.55
2022-08-14T09:30:31.542Z,3.45
2022-08-14T09:33:04.809Z,2.80
2022-08-14T09:36:08.202Z,3.30
2022-08-14T09:39:21.203Z,3.03
2022-08-14T09:42:21.537Z,3.00
2022-08-14T09:45:19.776Z,2.90
2022-08-14T09:47:49.117Z,2.88
2022-08-14T09:50:21.709Z,2.90
2022-08-14T09:52:57.121Z,2.47
2022-08-14T09:55:27.816Z,2.88
2022-08-14T09:58:08.490Z,3.05
2022-08-14T10:00:54.287Z,3.30
2022-08-14T10:03:34.051Z,2.80
2022-08-14T10:06:08.685Z,2.80
2022-08-14T10:09:12.129Z,2.90
2022-08-14T10:11:59.048Z,2.83
2022-08-14T10:14:35.645Z,2.95
2022-08-14T10:17:06.375Z,3.30
2022-08-14T10:19:35.999Z,2.72
2022-08-14T10:23:12.881Z,2.67
2022-08-14T10:24:54.672Z,2.83
2022-08-14T10:27:26.536Z,2.90
2022-08-14T10:30:01.860Z,2.78
2022-08-14T10:32:40.317Z,3.10
2022-08-14T10:35:16.496Z,3.08
2022-08-14T10:37:49.649Z,2.90
2022-08-14T10:40:44.319Z,2.65
2022-08-14T10:43:23.271Z,2.70
2022-08-14T10:46:05.338Z,2.50
2022-08-14T10:49:04.080Z,2.13
2022-08-14T10:51:34.211Z,2.40
2022-08-14T10:54:16.939Z,2.40
2022-08-14T10:57:18.631Z,2.42
2022-08-14T10:59:56.675Z,2.40
2022-08-14T11:02:46.026Z,2.50
2022-08-14T11:05:23.441Z,2.55
2022-08-14T11:07:56.482Z,2.40
2022-08-14T11:10:27.832Z,2.60
2022-08-14T11:12:57.057Z,2.35
2022-08-14T11:15:27.290Z,2.50
2022-08-14T11:17:56.366Z,2.55
2022-08-14T11:20:30.006Z,2.17
2022-08-14T11:22:59.478Z,2.58
2022-08-14T11:25:36.825Z,2.33
2022-08-14T11:28:14.654Z,2.50
2022-08-14T11:30:53.477Z,2.28
2022-08-14T11:33:25.668Z,2.30
2022-08-14T11:35:52.372Z,2.28
2022-08-14T11:38:21.522Z,2.50
2022-08-14T11:40:48.341Z,2.40
2022-08-14T11:43:15.389Z,2.45
2022-08-14T11:45:47.936Z,2.42
2022-08-14T11:49:03.821Z,2.10
2022-08-14T11:53:54.143Z,2.28
2022-08-14T11:58:53.811Z,2.33
2022-08-14T12:01:29.015Z,2.42
2022-08-14T12:03:58.656Z,2.35
2022-08-14T12:08:56.922Z,2.40
2022-08-14T12:11:38.203Z,2.00
2022-08-14T12:14:13.525Z,2.17
2022-08-14T12:17:12.000Z,2.20
2022-08-14T12:19:51.159Z,2.08
2022-08-14T12:22:29.569Z,2.30
2022-08-14T12:24:57.234Z,2.47
2022-08-14T12:27:53.867Z,2.60
2022-08-14T12:30:42.581Z,2.50
2022-08-14T12:33:30.848Z,2.40
2022-08-14T12:36:05.753Z,2.40
2022-08-14T12:38:35.998Z,2.50
2022-08-14T12:43:31.215Z,2.22
2022-08-14T12:45:58.621Z,2.47
2022-08-14T12:48:32.140Z,2.20
2022-08-14T12:50:59.380Z,2.30
2022-08-14T12:53:38.427Z,2.08
2022-08-14T12:56:21.672Z,2.22
2022-08-14T12:58:56.798Z,2.30
2022-08-14T13:01:28.074Z,2.10
2022-08-14T13:04:12.581Z,2.00
2022-08-14T13:06:41.373Z,2.00
2022-08-14T13:09:13.830Z,2.00
2022-08-14T13:11:44.909Z,1.80
2022-08-14T13:16:45.585Z,2.13
2022-08-14T13:19:18.390Z,1.83
2022-08-14T13:22:05.474Z,2.00
2022-08-14T13:24:38.737Z,2.35
2022-08-14T13:27:06.737Z,2.40
2022-08-14T13:29:46.806Z,1.90
2022-08-14T13:32:15.134Z,2.00
2022-08-14T13:34:43.660Z,2.33
2022-08-14T13:37:14.774Z,2.30
2022-08-14T13:39:47.699Z,2.50
2022-08-14T13:42:27.652Z,2.70
2022-08-14T13:44:59.818Z,2.72
2022-08-14T13:47:32.352Z,2.60
2022-08-14T13:50:02.992Z,2.55
2022-08-14T13:52:59.308Z,2.72
2022-08-14T13:55:28.818Z,2.33
2022-08-14T13:58:04.479Z,2.45
2022-08-14T14:00:51.726Z,2.30
2022-08-14T14:03:22.002Z,2.33
2022-08-14T14:05:54.510Z,2.20
2022-08-14T14:08:47.025Z,2.35
2022-08-14T14:11:11.269Z,2.47
2022-08-14T14:13:41.997Z,2.30
2022-08-14T14:16:15.424Z,2.22
2022-08-14T14:18:55.870Z,2.33
2022-08-14T14:21:26.450Z,2.47
2022-08-14T14:23:56.214Z,2.30
2022-08-14T14:26:24.622Z,2.50
2022-08-14T14:29:00.550Z,2.10
2022-08-14T14:31:29.915Z,2.20
2022-08-14T14:34:00.076Z,2.30
2022-08-14T14:36:30.800Z,1.98
2022-08-14T14:39:01.055Z,2.20
2022-08-14T14:41:37.562Z,2.15
2022-08-14T14:44:16.109Z,2.20
2022-08-14T14:46:44.862Z,2.05
2022-08-14T14:49:14.422Z,1.80
2022-08-14T14:51:44.459Z,1.95
2022-08-14T14:54:17.807Z,2.00
2022-08-14T14:56:47.511Z,1.83
2022-08-14T14:59:16.908Z,1.70
2022-08-14T15:01:49.194Z,1.95
2022-08-14T15:04:20.770Z,2.05
2022-08-14T15:06:48.958Z,1.60
2022-08-14T15:09:17.745Z,1.60
2022-08-14T15:11:47.084Z,1.75
2022-08-14T15:14:54.698Z,1.50
2022-08-14T15:17:01.950Z,1.65
2022-08-14T15:19:28.871Z,1.77
2022-08-14T15:21:55.818Z,1.70
2022-08-14T15:24:26.607Z,1.80
2022-08-14T15:26:56.993Z,2.00
2022-08-14T15:29:25.722Z,1.80
2022-08-14T15:31:53.970Z,1.92
2022-08-14T15:34:43.403Z,1.88
2022-08-14T15:37:12.819Z,1.48
2022-08-14T15:39:41.966Z,1.98
2022-08-14T15:42:16.082Z,1.60
2022-08-14T15:44:58.016Z,1.40
2022-08-14T15:47:30.864Z,1.73
2022-08-14T15:50:02.848Z,1.77
2022-08-14T15:52:35.386Z,1.80
2022-08-14T15:55:09.596Z,1.70
2022-08-14T15:57:36.997Z,1.80
2022-08-14T16:00:40.536Z,1.58
2022-08-14T16:03:15.871Z,1.52
2022-08-14T16:05:44.411Z,1.60
2022-08-14T16:08:26.871Z,1.67
2022-08-14T16:10:57.965Z,1.55
2022-08-14T16:13:41.500Z,1.42
2022-08-14T16:16:51.024Z,1.88
2022-08-14T16:19:10.674Z,1.50
2022-08-14T16:24:26.983Z,1.83
2022-08-14T16:27:00.893Z,1.70
2022-08-14T16:29:31.668Z,1.50
2022-08-14T16:32:33.630Z,1.80
2022-08-14T16:34:53.392Z,1.65
2022-08-14T16:37:22.601Z,1.80
2022-08-14T16:39:49.572Z,1.70
2022-08-14T16:42:39.074Z,1.83
2022-08-14T16:45:10.728Z,1.83
2022-08-14T16:47:38.060Z,1.60
2022-08-14T16:50:10.346Z,1.70
2022-08-14T16:52:43.900Z,1.63
2022-08-14T16:55:13.981Z,1.80
2022-08-14T16:57:54.420Z,1.53
2022-08-14T17:00:29.051Z,1.67
2022-08-14T17:03:01.460Z,2.00
2022-08-14T17:05:29.021Z,1.70
2022-08-14T17:08:31.451Z,1.50
2022-08-14T17:10:51.710Z,1.55
2022-08-14T17:13:20.199Z,1.90
2022-08-14T17:16:08.170Z,1.80
2022-08-14T17:18:41.210Z,1.90
2022-08-14T17:21:47.285Z,1.55
2022-08-14T17:24:56.536Z,1.50
2022-08-14T17:27:05.093Z,1.60
2022-08-14T17:29:34.345Z,1.60
2022-08-14T17:32:22.470Z,1.80
2022-08-14T17:34:57.800Z,1.80
2022-08-14T17:37:39.214Z,1.77
2022-08-14T17:40:25.948Z,1.40
2022-08-14T17:43:01.681Z,1.85
2022-08-14T17:45:41.670Z,1.70
2022-08-14T17:49:15.912Z,1.50
2022-08-14T17:51:14.152Z,1.70
2022-08-14T17:53:53.870Z,2.00
2022-08-14T17:56:31.834Z,1.77
2022-08-14T17:59:04.058Z,1.83
2022-08-14T18:01:36.113Z,1.90
2022-08-14T18:04:27.618Z,1.65
2022-08-14T18:06:57.561Z,1.83
2022-08-14T18:09:26.473Z,1.70
2022-08-14T18:11:55.290Z,2.50
2022-08-14T18:14:32.450Z,1.83
2022-08-14T18:17:01.539Z,2.40
2022-08-14T18:19:30.676Z,2.20
2022-08-14T18:21:59.356Z,2.30
2022-08-14T18:24:30.109Z,2.00
2022-08-14T18:27:21.673Z,2.00
2022-08-14T18:29:55.543Z,1.77
2022-08-14T18:32:31.697Z,2.25
2022-08-14T18:35:02.170Z,1.92
2022-08-14T18:37:32.359Z,2.00
2022-08-14T18:42:46.950Z,2.22
2022-08-14T18:45:28.986Z,2.00
2022-08-14T18:48:18.850Z,2.00
2022-08-14T18:50:54.461Z,1.98
2022-08-14T18:53:24.449Z,2.05
2022-08-14T18:56:02.087Z,2.13
2022-08-14T18:58:57.158Z,1.90
2022-08-14T19:01:29.829Z,2.40
2022-08-14T19:03:58.535Z,1.90
2022-08-14T19:06:40.603Z,2.10
2022-08-14T19:09:07.585Z,1.95
2022-08-14T19:11:37.767Z,2.22
2022-08-14T19:14:05.713Z,2.28
2022-08-14T19:16:34.997Z,1.98
2022-08-14T19:19:03.943Z,1.63
2022-08-14T19:21:35.721Z,2.10
2022-08-14T19:24:29.782Z,1.55
2022-08-14T19:27:25.632Z,1.80
2022-08-14T19:30:20.353Z,1.92
2022-08-14T19:32:51.671Z,1.83
2022-08-14T19:35:24.796Z,1.90
2022-08-14T19:38:32.848Z,1.55
2022-08-14T19:40:58.984Z,1.75
2022-08-14T19:43:55.942Z,1.80
2022-08-14T19:46:37.746Z,1.70
2022-08-14T19:49:10.715Z,1.75
2022-08-14T19:51:43.569Z,1.70
2022-08-14T19:54:13.168Z,1.52
2022-08-14T19:56:45.366Z,1.80
2022-08-14T19:59:18.401Z,1.70
2022-08-14T20:01:50.597Z,1.80
2022-08-14T20:04:47.268Z,1.90
2022-08-14T20:07:59.247Z,1.95
2022-08-14T20:11:12.482Z,1.80
2022-08-14T20:13:25.031Z,2.00
2022-08-14T20:16:02.065Z,1.60
2022-08-14T20:21:15.923Z,1.77
2022-08-14T20:23:42.751Z,1.95
2022-08-14T20:26:30.916Z,2.20
2022-08-14T20:29:05.160Z,1.80
2022-08-14T20:31:37.489Z,2.28
2022-08-14T20:34:24.907Z,1.73
2022-08-14T20:37:13.206Z,2.25
2022-08-14T20:39:54.637Z,2.10
2022-08-14T20:42:43.362Z,2.10
2022-08-14T20:45:21.562Z,1.92
2022-08-14T20:47:56.531Z,1.98
2022-08-14T20:50:28.242Z,2.30
2022-08-14T20:52:57.930Z,2.15
2022-08-14T20:55:35.070Z,2.22
2022-08-14T20:58:03.889Z,2.63
2022-08-14T21:00:52.468Z,2.60
2022-08-14T21:03:33.411Z,2.50
2022-08-14T21:06:19.392Z,2.40
2022-08-14T21:08:52.367Z,2.50
2022-08-14T21:11:21.931Z,2.85
2022-08-14T21:14:24.687Z,2.10
2022-08-14T21:16:40.996Z,2.80
2022-08-14T21:19:26.100Z,2.35
2022-08-14T21:21:55.408Z,2.80
2022-08-14T21:24:40.101Z,2.37
2022-08-14T21:27:12.807Z,2.40
2022-08-14T21:29:54.288Z,2.85
2022-08-14T21:32:50.125Z,2.72
2022-08-14T21:35:19.520Z,2.50
2022-08-14T21:37:47.755Z,2.30
2022-08-14T21:40:33.239Z,2.35
2022-08-14T21:43:05.043Z,2.47
2022-08-14T21:45:35.379Z,2.20
2022-08-14T21:48:09.185Z,2.63
2022-08-14T21:51:01.477Z,2.40
2022-08-14T21:53:30.912Z,2.60
2022-08-14T21:55:58.307Z,2.47
2022-08-14T21:58:51.955Z,2.40
2022-08-14T22:01:17.239Z,2.78
2022-08-14T22:03:44.958Z,2.50
2022-08-14T22:06:19.546Z,2.53
2022-08-14T22:08:46.817Z,2.33
2022-08-14T22:11:20.278Z,2.25
2022-08-14T22:13:49.002Z,2.00
2022-08-14T22:17:11.878Z,2.55
2022-08-14T22:19:04.625Z,2.20
2022-08-14T22:21:37.926Z,2.30
2022-08-14T22:24:11.859Z,2.30
2022-08-14T22:27:01.248Z,2.40
2022-08-14T22:31:55.681Z,2.17
2022-08-14T22:34:22.907Z,2.50
2022-08-14T22:36:50.874Z,2.63
2022-08-14T22:39:20.233Z,2.22
2022-08-14T22:42:21.363Z,2.55
2022-08-14T22:44:51.274Z,2.83
2022-08-14T22:47:24.742Z,2.60
2022-08-14T22:50:31.424Z,2.70
2022-08-14T22:52:39.543Z,2.35
2022-08-14T22:55:07.437Z,2.30
2022-08-14T22:57:37.787Z,2.40
2022-08-14T23:00:14.475Z,2.25
2022-08-14T23:02:43.916Z,2.28
2022-08-14T23:05:13.016Z,2.10
2022-08-14T23:08:59.675Z,2.20
2022-08-14T23:10:31.955Z,2.08
2022-08-14T23:13:02.285Z,2.20
2022-08-14T23:15:30.142Z,2.10
2022-08-14T23:17:58.071Z,1.90
2022-08-14T23:20:29.368Z,1.75
2022-08-14T23:22:56.799Z,2.22
2022-08-14T23:25:56.792Z,2.28
2022-08-14T23:31:01.429Z,2.10
2022-08-14T23:33:28.665Z,2.10
2022-08-14T23:35:58.925Z,2.30
2022-08-14T23:38:30.484Z,2.20
2022-08-14T23:40:58.297Z,2.20
2022-08-14T23:43:28.345Z,2.50
2022-08-14T23:45:58.903Z,2.03
2022-08-14T23:48:28.262Z,2.20
2022-08-14T23:50:55.876Z,2.40
2022-08-14T23:53:28.304Z,1.90
2022-08-14T23:56:30.282Z,2.25
2022-08-14T23:59:00.883Z,2.03
